sensor_id;sensor_type;location;lat;lon;timestamp;P1;durP1;ratioP1;P2;durP2;ratioP2
6133;SDS011;3098;42.678;23.364;2024-03-06T00:00:56;19.05;;;11.70;;
6133;SDS011;3098;42.678;23.364;2024-03-06T00:03:21;26.42;;;11.50;;
6133;SDS011;3098;42.678;23.364;2024-03-06T00:05:47;23.17;;;11.65;;
6133;SDS011;3098;42.678;23.364;2024-03-06T00:08:13;20.63;;;11.50;;
6133;SDS011;3098;42.678;23.364;2024-03-06T00:10:40;23.50;;;11.77;;
6133;SDS011;3098;42.678;23.364;2024-03-06T00:13:06;25.38;;;12.05;;
6133;SDS011;3098;42.678;23.364;2024-03-06T00:15:32;23.25;;;12.73;;
6133;SDS011;3098;42.678;23.364;2024-03-06T00:17:58;21.73;;;12.15;;
6133;SDS011;3098;42.678;23.364;2024-03-06T00:20:25;23.83;;;12.43;;
6133;SDS011;3098;42.678;23.364;2024-03-06T00:22:51;25.17;;;11.43;;
6133;SDS011;3098;42.678;23.364;2024-03-06T00:25:16;24.00;;;12.43;;
6133;SDS011;3098;42.678;23.364;2024-03-06T00:27:42;22.80;;;12.13;;
6133;SDS011;3098;42.678;23.364;2024-03-06T00:30:07;24.92;;;13.02;;
6133;SDS011;3098;42.678;23.364;2024-03-06T00:32:33;24.27;;;13.02;;
6133;SDS011;3098;42.678;23.364;2024-03-06T00:34:59;27.88;;;13.80;;
6133;SDS011;3098;42.678;23.364;2024-03-06T00:37:24;27.20;;;13.43;;
6133;SDS011;3098;42.678;23.364;2024-03-06T00:39:50;24.05;;;12.35;;
6133;SDS011;3098;42.678;23.364;2024-03-06T00:42:15;22.83;;;13.15;;
6133;SDS011;3098;42.678;23.364;2024-03-06T00:44:41;20.65;;;12.48;;
6133;SDS011;3098;42.678;23.364;2024-03-06T00:47:06;28.83;;;13.80;;
6133;SDS011;3098;42.678;23.364;2024-03-06T00:49:32;23.20;;;12.50;;
6133;SDS011;3098;42.678;23.364;2024-03-06T00:51:57;26.70;;;13.80;;
6133;SDS011;3098;42.678;23.364;2024-03-06T00:54:23;25.48;;;13.68;;
6133;SDS011;3098;42.678;23.364;2024-03-06T00:56:49;26.40;;;13.82;;
6133;SDS011;3098;42.678;23.364;2024-03-06T00:59:14;23.38;;;12.10;;
6133;SDS011;3098;42.678;23.364;2024-03-06T01:01:40;23.48;;;12.60;;
6133;SDS011;3098;42.678;23.364;2024-03-06T01:04:06;27.10;;;13.40;;
6133;SDS011;3098;42.678;23.364;2024-03-06T01:06:31;25.63;;;14.10;;
6133;SDS011;3098;42.678;23.364;2024-03-06T01:08:58;26.77;;;12.40;;
6133;SDS011;3098;42.678;23.364;2024-03-06T01:11:24;26.05;;;14.00;;
6133;SDS011;3098;42.678;23.364;2024-03-06T01:13:51;35.25;;;14.85;;
6133;SDS011;3098;42.678;23.364;2024-03-06T01:16:17;22.50;;;11.98;;
6133;SDS011;3098;42.678;23.364;2024-03-06T01:18:43;30.80;;;13.80;;
6133;SDS011;3098;42.678;23.364;2024-03-06T01:21:09;24.35;;;13.68;;
6133;SDS011;3098;42.678;23.364;2024-03-06T01:23:35;25.63;;;13.65;;
6133;SDS011;3098;42.678;23.364;2024-03-06T01:26:00;24.55;;;12.35;;
6133;SDS011;3098;42.678;23.364;2024-03-06T01:28:26;25.13;;;13.15;;
6133;SDS011;3098;42.678;23.364;2024-03-06T01:30:52;26.27;;;13.10;;
6133;SDS011;3098;42.678;23.364;2024-03-06T01:33:18;26.80;;;14.27;;
6133;SDS011;3098;42.678;23.364;2024-03-06T01:35:43;26.35;;;14.38;;
6133;SDS011;3098;42.678;23.364;2024-03-06T01:38:09;26.70;;;12.95;;
6133;SDS011;3098;42.678;23.364;2024-03-06T01:40:35;26.63;;;13.05;;
6133;SDS011;3098;42.678;23.364;2024-03-06T01:43:01;35.65;;;17.83;;
6133;SDS011;3098;42.678;23.364;2024-03-06T01:45:27;27.95;;;14.18;;
6133;SDS011;3098;42.678;23.364;2024-03-06T01:47:52;22.83;;;12.23;;
6133;SDS011;3098;42.678;23.364;2024-03-06T01:50:18;24.77;;;12.60;;
6133;SDS011;3098;42.678;23.364;2024-03-06T01:52:44;29.73;;;14.05;;
6133;SDS011;3098;42.678;23.364;2024-03-06T01:55:10;37.47;;;18.20;;
6133;SDS011;3098;42.678;23.364;2024-03-06T01:57:37;38.80;;;18.15;;
6133;SDS011;3098;42.678;23.364;2024-03-06T02:00:05;37.35;;;16.45;;
6133;SDS011;3098;42.678;23.364;2024-03-06T02:02:38;29.15;;;17.10;;
6133;SDS011;3098;42.678;23.364;2024-03-06T02:05:05;32.45;;;15.70;;
6133;SDS011;3098;42.678;23.364;2024-03-06T02:07:32;29.83;;;15.43;;
6133;SDS011;3098;42.678;23.364;2024-03-06T02:09:57;26.45;;;14.63;;
6133;SDS011;3098;42.678;23.364;2024-03-06T02:12:24;31.70;;;15.73;;
6133;SDS011;3098;42.678;23.364;2024-03-06T02:14:49;32.67;;;16.90;;
6133;SDS011;3098;42.678;23.364;2024-03-06T02:17:15;26.13;;;14.43;;
6133;SDS011;3098;42.678;23.364;2024-03-06T02:19:40;28.92;;;14.23;;
6133;SDS011;3098;42.678;23.364;2024-03-06T02:22:08;33.35;;;14.63;;
6133;SDS011;3098;42.678;23.364;2024-03-06T02:24:35;31.42;;;15.30;;
6133;SDS011;3098;42.678;23.364;2024-03-06T02:27:02;31.73;;;16.73;;
6133;SDS011;3098;42.678;23.364;2024-03-06T02:29:30;28.10;;;15.63;;
6133;SDS011;3098;42.678;23.364;2024-03-06T02:32:00;32.70;;;16.20;;
6133;SDS011;3098;42.678;23.364;2024-03-06T02:34:28;40.80;;;17.45;;
6133;SDS011;3098;42.678;23.364;2024-03-06T02:36:56;29.95;;;15.43;;
6133;SDS011;3098;42.678;23.364;2024-03-06T02:39:22;31.02;;;15.95;;
6133;SDS011;3098;42.678;23.364;2024-03-06T02:41:48;27.20;;;15.05;;
6133;SDS011;3098;42.678;23.364;2024-03-06T02:44:14;30.45;;;14.02;;
6133;SDS011;3098;42.678;23.364;2024-03-06T02:46:45;27.70;;;13.73;;
6133;SDS011;3098;42.678;23.364;2024-03-06T02:49:12;36.20;;;18.08;;
6133;SDS011;3098;42.678;23.364;2024-03-06T02:51:38;30.15;;;15.77;;
6133;SDS011;3098;42.678;23.364;2024-03-06T02:54:03;26.98;;;14.82;;
6133;SDS011;3098;42.678;23.364;2024-03-06T02:56:29;29.45;;;16.00;;
6133;SDS011;3098;42.678;23.364;2024-03-06T02:58:55;28.55;;;13.77;;
6133;SDS011;3098;42.678;23.364;2024-03-06T03:01:20;28.67;;;14.52;;
6133;SDS011;3098;42.678;23.364;2024-03-06T03:03:46;27.42;;;14.60;;
6133;SDS011;3098;42.678;23.364;2024-03-06T03:06:12;28.70;;;14.63;;
6133;SDS011;3098;42.678;23.364;2024-03-06T03:08:38;26.85;;;12.98;;
6133;SDS011;3098;42.678;23.364;2024-03-06T03:11:04;33.58;;;15.65;;
6133;SDS011;3098;42.678;23.364;2024-03-06T03:13:30;33.53;;;14.98;;
6133;SDS011;3098;42.678;23.364;2024-03-06T03:15:59;35.30;;;15.60;;
6133;SDS011;3098;42.678;23.364;2024-03-06T03:18:24;27.77;;;14.77;;
6133;SDS011;3098;42.678;23.364;2024-03-06T03:20:51;29.10;;;14.27;;
6133;SDS011;3098;42.678;23.364;2024-03-06T03:23:17;30.38;;;15.60;;
6133;SDS011;3098;42.678;23.364;2024-03-06T03:25:47;27.63;;;14.50;;
6133;SDS011;3098;42.678;23.364;2024-03-06T03:28:14;27.35;;;14.57;;
6133;SDS011;3098;42.678;23.364;2024-03-06T03:30:42;25.33;;;13.48;;
6133;SDS011;3098;42.678;23.364;2024-03-06T03:33:09;29.67;;;14.38;;
6133;SDS011;3098;42.678;23.364;2024-03-06T03:35:34;28.23;;;13.10;;
6133;SDS011;3098;42.678;23.364;2024-03-06T03:38:00;26.63;;;12.90;;
6133;SDS011;3098;42.678;23.364;2024-03-06T03:40:25;25.83;;;14.00;;
6133;SDS011;3098;42.678;23.364;2024-03-06T03:42:51;27.52;;;14.30;;
6133;SDS011;3098;42.678;23.364;2024-03-06T03:45:17;36.55;;;16.42;;
6133;SDS011;3098;42.678;23.364;2024-03-06T03:47:45;35.42;;;15.90;;
6133;SDS011;3098;42.678;23.364;2024-03-06T03:50:10;31.50;;;14.82;;
6133;SDS011;3098;42.678;23.364;2024-03-06T03:52:36;29.85;;;14.57;;
6133;SDS011;3098;42.678;23.364;2024-03-06T03:55:06;26.80;;;13.75;;
6133;SDS011;3098;42.678;23.364;2024-03-06T03:57:32;26.45;;;14.73;;
6133;SDS011;3098;42.678;23.364;2024-03-06T03:59:58;26.52;;;14.13;;
6133;SDS011;3098;42.678;23.364;2024-03-06T04:02:23;26.33;;;14.40;;
6133;SDS011;3098;42.678;23.364;2024-03-06T04:04:50;28.48;;;15.23;;
6133;SDS011;3098;42.678;23.364;2024-03-06T04:07:15;30.60;;;14.48;;
6133;SDS011;3098;42.678;23.364;2024-03-06T04:09:44;31.20;;;13.52;;
6133;SDS011;3098;42.678;23.364;2024-03-06T04:12:09;32.45;;;14.18;;
6133;SDS011;3098;42.678;23.364;2024-03-06T04:14:35;33.85;;;14.65;;
6133;SDS011;3098;42.678;23.364;2024-03-06T04:17:01;27.48;;;14.38;;
6133;SDS011;3098;42.678;23.364;2024-03-06T04:19:29;31.27;;;12.80;;
6133;SDS011;3098;42.678;23.364;2024-03-06T04:21:54;25.80;;;13.30;;
6133;SDS011;3098;42.678;23.364;2024-03-06T04:24:20;31.55;;;15.00;;
6133;SDS011;3098;42.678;23.364;2024-03-06T04:26:45;32.05;;;14.35;;
6133;SDS011;3098;42.678;23.364;2024-03-06T04:29:11;32.30;;;15.30;;
6133;SDS011;3098;42.678;23.364;2024-03-06T04:31:37;29.88;;;14.93;;
6133;SDS011;3098;42.678;23.364;2024-03-06T04:34:04;34.47;;;15.93;;
6133;SDS011;3098;42.678;23.364;2024-03-06T04:36:30;28.73;;;15.45;;
6133;SDS011;3098;42.678;23.364;2024-03-06T04:38:56;34.20;;;15.52;;
6133;SDS011;3098;42.678;23.364;2024-03-06T04:41:21;28.17;;;15.10;;
6133;SDS011;3098;42.678;23.364;2024-03-06T04:43:48;34.15;;;16.52;;
6133;SDS011;3098;42.678;23.364;2024-03-06T04:46:16;35.05;;;14.50;;
6133;SDS011;3098;42.678;23.364;2024-03-06T04:48:41;27.58;;;14.95;;
6133;SDS011;3098;42.678;23.364;2024-03-06T04:51:07;28.17;;;15.02;;
6133;SDS011;3098;42.678;23.364;2024-03-06T04:53:35;29.42;;;14.70;;
6133;SDS011;3098;42.678;23.364;2024-03-06T04:56:01;31.33;;;15.27;;
6133;SDS011;3098;42.678;23.364;2024-03-06T04:58:26;33.53;;;14.95;;
6133;SDS011;3098;42.678;23.364;2024-03-06T05:00:53;33.75;;;16.48;;
6133;SDS011;3098;42.678;23.364;2024-03-06T05:03:19;29.95;;;14.85;;
6133;SDS011;3098;42.678;23.364;2024-03-06T05:05:44;30.40;;;15.45;;
6133;SDS011;3098;42.678;23.364;2024-03-06T05:08:10;29.40;;;14.82;;
6133;SDS011;3098;42.678;23.364;2024-03-06T05:10:36;30.33;;;15.88;;
6133;SDS011;3098;42.678;23.364;2024-03-06T05:13:01;34.10;;;15.10;;
6133;SDS011;3098;42.678;23.364;2024-03-06T05:15:27;33.40;;;15.90;;
6133;SDS011;3098;42.678;23.364;2024-03-06T05:17:53;30.02;;;14.80;;
6133;SDS011;3098;42.678;23.364;2024-03-06T05:20:20;29.73;;;15.35;;
6133;SDS011;3098;42.678;23.364;2024-03-06T05:22:47;25.45;;;13.60;;
6133;SDS011;3098;42.678;23.364;2024-03-06T05:25:12;28.00;;;14.85;;
6133;SDS011;3098;42.678;23.364;2024-03-06T05:27:39;30.90;;;14.60;;
6133;SDS011;3098;42.678;23.364;2024-03-06T05:30:05;24.98;;;13.40;;
6133;SDS011;3098;42.678;23.364;2024-03-06T05:32:31;29.85;;;14.00;;
6133;SDS011;3098;42.678;23.364;2024-03-06T05:34:57;26.08;;;14.60;;
6133;SDS011;3098;42.678;23.364;2024-03-06T05:37:23;27.02;;;12.68;;
6133;SDS011;3098;42.678;23.364;2024-03-06T05:39:48;23.75;;;12.30;;
6133;SDS011;3098;42.678;23.364;2024-03-06T05:42:14;24.00;;;13.38;;
6133;SDS011;3098;42.678;23.364;2024-03-06T05:44:40;28.15;;;14.48;;
6133;SDS011;3098;42.678;23.364;2024-03-06T05:47:05;26.98;;;15.05;;
6133;SDS011;3098;42.678;23.364;2024-03-06T05:49:32;28.13;;;15.18;;
6133;SDS011;3098;42.678;23.364;2024-03-06T05:51:58;20.67;;;13.27;;
6133;SDS011;3098;42.678;23.364;2024-03-06T05:54:23;26.80;;;14.35;;
6133;SDS011;3098;42.678;23.364;2024-03-06T05:56:49;24.60;;;14.63;;
6133;SDS011;3098;42.678;23.364;2024-03-06T05:59:17;30.20;;;14.95;;
6133;SDS011;3098;42.678;23.364;2024-03-06T06:01:43;31.65;;;15.57;;
6133;SDS011;3098;42.678;23.364;2024-03-06T06:04:09;33.40;;;16.95;;
6133;SDS011;3098;42.678;23.364;2024-03-06T06:06:36;31.65;;;15.18;;
6133;SDS011;3098;42.678;23.364;2024-03-06T06:09:01;27.45;;;17.15;;
6133;SDS011;3098;42.678;23.364;2024-03-06T06:11:31;34.60;;;21.58;;
6133;SDS011;3098;42.678;23.364;2024-03-06T06:13:58;43.47;;;24.80;;
6133;SDS011;3098;42.678;23.364;2024-03-06T06:16:23;40.92;;;23.98;;
6133;SDS011;3098;42.678;23.364;2024-03-06T06:18:49;43.42;;;24.73;;
6133;SDS011;3098;42.678;23.364;2024-03-06T06:21:15;43.85;;;26.98;;
6133;SDS011;3098;42.678;23.364;2024-03-06T06:23:41;42.67;;;25.20;;
6133;SDS011;3098;42.678;23.364;2024-03-06T06:26:08;45.28;;;24.35;;
6133;SDS011;3098;42.678;23.364;2024-03-06T06:28:35;40.35;;;22.45;;
6133;SDS011;3098;42.678;23.364;2024-03-06T06:31:02;38.08;;;20.90;;
6133;SDS011;3098;42.678;23.364;2024-03-06T06:33:29;32.08;;;20.00;;
6133;SDS011;3098;42.678;23.364;2024-03-06T06:35:55;42.97;;;22.92;;
6133;SDS011;3098;42.678;23.364;2024-03-06T06:38:21;40.00;;;21.20;;
6133;SDS011;3098;42.678;23.364;2024-03-06T06:40:47;36.88;;;21.40;;
6133;SDS011;3098;42.678;23.364;2024-03-06T06:43:13;38.20;;;20.27;;
6133;SDS011;3098;42.678;23.364;2024-03-06T06:45:40;40.75;;;19.85;;
6133;SDS011;3098;42.678;23.364;2024-03-06T06:48:06;34.55;;;18.83;;
6133;SDS011;3098;42.678;23.364;2024-03-06T06:50:31;33.72;;;18.70;;
6133;SDS011;3098;42.678;23.364;2024-03-06T06:52:58;25.10;;;14.95;;
6133;SDS011;3098;42.678;23.364;2024-03-06T06:55:24;33.38;;;16.90;;
6133;SDS011;3098;42.678;23.364;2024-03-06T06:57:50;28.05;;;15.52;;
6133;SDS011;3098;42.678;23.364;2024-03-06T07:00:16;29.38;;;16.23;;
6133;SDS011;3098;42.678;23.364;2024-03-06T07:02:43;35.38;;;16.60;;
6133;SDS011;3098;42.678;23.364;2024-03-06T07:05:10;28.15;;;17.80;;
6133;SDS011;3098;42.678;23.364;2024-03-06T07:07:36;30.63;;;17.27;;
6133;SDS011;3098;42.678;23.364;2024-03-06T07:10:03;30.20;;;16.42;;
6133;SDS011;3098;42.678;23.364;2024-03-06T07:12:29;25.55;;;14.63;;
6133;SDS011;3098;42.678;23.364;2024-03-06T07:14:56;24.00;;;13.63;;
6133;SDS011;3098;42.678;23.364;2024-03-06T07:17:21;22.80;;;13.13;;
6133;SDS011;3098;42.678;23.364;2024-03-06T07:19:47;23.95;;;13.88;;
6133;SDS011;3098;42.678;23.364;2024-03-06T07:22:13;27.92;;;14.68;;
6133;SDS011;3098;42.678;23.364;2024-03-06T07:24:39;21.17;;;12.48;;
6133;SDS011;3098;42.678;23.364;2024-03-06T07:27:05;21.02;;;12.38;;
6133;SDS011;3098;42.678;23.364;2024-03-06T07:29:30;24.05;;;11.82;;
6133;SDS011;3098;42.678;23.364;2024-03-06T07:31:56;20.42;;;11.38;;
6133;SDS011;3098;42.678;23.364;2024-03-06T07:34:22;22.85;;;13.23;;
6133;SDS011;3098;42.678;23.364;2024-03-06T07:36:48;26.08;;;13.57;;
6133;SDS011;3098;42.678;23.364;2024-03-06T07:39:18;22.40;;;13.77;;
6133;SDS011;3098;42.678;23.364;2024-03-06T07:41:45;24.20;;;14.80;;
6133;SDS011;3098;42.678;23.364;2024-03-06T07:44:11;27.00;;;13.98;;
6133;SDS011;3098;42.678;23.364;2024-03-06T07:46:37;26.45;;;14.18;;
6133;SDS011;3098;42.678;23.364;2024-03-06T07:49:02;24.23;;;14.98;;
6133;SDS011;3098;42.678;23.364;2024-03-06T07:51:30;26.45;;;13.55;;
6133;SDS011;3098;42.678;23.364;2024-03-06T07:53:59;26.38;;;15.15;;
6133;SDS011;3098;42.678;23.364;2024-03-06T07:56:25;25.23;;;14.73;;
6133;SDS011;3098;42.678;23.364;2024-03-06T07:58:52;20.10;;;11.85;;
6133;SDS011;3098;42.678;23.364;2024-03-06T08:01:21;24.15;;;13.80;;
6133;SDS011;3098;42.678;23.364;2024-03-06T08:03:47;21.80;;;12.80;;
6133;SDS011;3098;42.678;23.364;2024-03-06T08:06:13;26.75;;;14.93;;
6133;SDS011;3098;42.678;23.364;2024-03-06T08:08:42;22.67;;;13.63;;
6133;SDS011;3098;42.678;23.364;2024-03-06T08:11:12;19.95;;;12.82;;
6133;SDS011;3098;42.678;23.364;2024-03-06T08:13:38;20.90;;;12.65;;
6133;SDS011;3098;42.678;23.364;2024-03-06T08:16:07;22.13;;;13.52;;
6133;SDS011;3098;42.678;23.364;2024-03-06T08:18:34;27.50;;;13.35;;
6133;SDS011;3098;42.678;23.364;2024-03-06T08:21:01;23.52;;;13.50;;
6133;SDS011;3098;42.678;23.364;2024-03-06T08:23:28;23.05;;;13.63;;
6133;SDS011;3098;42.678;23.364;2024-03-06T08:25:54;23.25;;;13.43;;
6133;SDS011;3098;42.678;23.364;2024-03-06T08:28:20;21.27;;;13.38;;
6133;SDS011;3098;42.678;23.364;2024-03-06T08:30:46;24.65;;;13.48;;
6133;SDS011;3098;42.678;23.364;2024-03-06T08:33:11;26.17;;;14.25;;
6133;SDS011;3098;42.678;23.364;2024-03-06T08:35:37;25.42;;;14.13;;
6133;SDS011;3098;42.678;23.364;2024-03-06T08:38:03;22.83;;;13.05;;
6133;SDS011;3098;42.678;23.364;2024-03-06T08:40:29;19.48;;;13.38;;
6133;SDS011;3098;42.678;23.364;2024-03-06T08:42:55;19.50;;;12.82;;
6133;SDS011;3098;42.678;23.364;2024-03-06T08:45:21;23.50;;;12.35;;
6133;SDS011;3098;42.678;23.364;2024-03-06T08:47:48;19.25;;;11.93;;
6133;SDS011;3098;42.678;23.364;2024-03-06T08:50:14;20.52;;;11.32;;
6133;SDS011;3098;42.678;23.364;2024-03-06T08:52:41;19.88;;;11.43;;
6133;SDS011;3098;42.678;23.364;2024-03-06T08:55:07;17.30;;;10.43;;
6133;SDS011;3098;42.678;23.364;2024-03-06T08:57:34;19.45;;;11.35;;
6133;SDS011;3098;42.678;23.364;2024-03-06T09:00:00;20.58;;;12.18;;
6133;SDS011;3098;42.678;23.364;2024-03-06T09:02:27;17.63;;;11.73;;
6133;SDS011;3098;42.678;23.364;2024-03-06T09:04:53;17.98;;;11.43;;
6133;SDS011;3098;42.678;23.364;2024-03-06T09:07:19;20.15;;;12.80;;
6133;SDS011;3098;42.678;23.364;2024-03-06T09:09:48;16.92;;;10.60;;
6133;SDS011;3098;42.678;23.364;2024-03-06T09:12:14;15.85;;;10.70;;
6133;SDS011;3098;42.678;23.364;2024-03-06T09:14:40;23.58;;;12.43;;
6133;SDS011;3098;42.678;23.364;2024-03-06T09:17:09;22.23;;;11.93;;
6133;SDS011;3098;42.678;23.364;2024-03-06T09:19:38;22.40;;;13.25;;
6133;SDS011;3098;42.678;23.364;2024-03-06T09:22:03;20.10;;;12.73;;
6133;SDS011;3098;42.678;23.364;2024-03-06T09:24:29;17.30;;;10.95;;
6133;SDS011;3098;42.678;23.364;2024-03-06T09:26:54;16.80;;;10.27;;
6133;SDS011;3098;42.678;23.364;2024-03-06T09:29:20;15.73;;;9.52;;
6133;SDS011;3098;42.678;23.364;2024-03-06T09:31:46;14.32;;;7.07;;
6133;SDS011;3098;42.678;23.364;2024-03-06T09:34:13;19.15;;;10.60;;
6133;SDS011;3098;42.678;23.364;2024-03-06T09:36:40;17.17;;;10.20;;
6133;SDS011;3098;42.678;23.364;2024-03-06T09:39:13;20.80;;;10.43;;
6133;SDS011;3098;42.678;23.364;2024-03-06T09:41:45;17.00;;;10.15;;
6133;SDS011;3098;42.678;23.364;2024-03-06T09:44:15;16.08;;;9.60;;
6133;SDS011;3098;42.678;23.364;2024-03-06T09:46:42;16.33;;;9.05;;
6133;SDS011;3098;42.678;23.364;2024-03-06T09:49:11;17.45;;;9.23;;
6133;SDS011;3098;42.678;23.364;2024-03-06T09:51:45;19.20;;;10.45;;
6133;SDS011;3098;42.678;23.364;2024-03-06T09:54:12;14.68;;;8.95;;
6133;SDS011;3098;42.678;23.364;2024-03-06T09:56:42;14.93;;;8.43;;
6133;SDS011;3098;42.678;23.364;2024-03-06T09:59:17;11.45;;;5.82;;
6133;SDS011;3098;42.678;23.364;2024-03-06T10:04:20;9.60;;;6.25;;
6133;SDS011;3098;42.678;23.364;2024-03-06T10:06:50;14.75;;;7.28;;
6133;SDS011;3098;42.678;23.364;2024-03-06T10:09:19;17.23;;;6.93;;
6133;SDS011;3098;42.678;23.364;2024-03-06T10:11:45;14.75;;;7.97;;
6133;SDS011;3098;42.678;23.364;2024-03-06T10:14:11;15.45;;;7.25;;
6133;SDS011;3098;42.678;23.364;2024-03-06T10:16:38;10.75;;;6.50;;
6133;SDS011;3098;42.678;23.364;2024-03-06T10:19:17;11.88;;;6.95;;
6133;SDS011;3098;42.678;23.364;2024-03-06T10:21:44;12.45;;;6.68;;
6133;SDS011;3098;42.678;23.364;2024-03-06T10:24:17;10.13;;;7.03;;
6133;SDS011;3098;42.678;23.364;2024-03-06T10:26:45;11.48;;;6.90;;
6133;SDS011;3098;42.678;23.364;2024-03-06T10:29:13;13.70;;;7.88;;
6133;SDS011;3098;42.678;23.364;2024-03-06T10:31:53;15.02;;;8.73;;
6133;SDS011;3098;42.678;23.364;2024-03-06T10:34:20;14.15;;;7.25;;
6133;SDS011;3098;42.678;23.364;2024-03-06T10:36:54;11.32;;;7.22;;
6133;SDS011;3098;42.678;23.364;2024-03-06T10:39:23;12.25;;;6.88;;
6133;SDS011;3098;42.678;23.364;2024-03-06T10:41:53;9.60;;;6.18;;
6133;SDS011;3098;42.678;23.364;2024-03-06T10:44:21;8.63;;;4.97;;
6133;SDS011;3098;42.678;23.364;2024-03-06T10:46:50;12.98;;;6.03;;
6133;SDS011;3098;42.678;23.364;2024-03-06T10:49:22;12.77;;;8.20;;
6133;SDS011;3098;42.678;23.364;2024-03-06T10:51:50;14.63;;;8.20;;
6133;SDS011;3098;42.678;23.364;2024-03-06T10:54:19;9.85;;;6.40;;
6133;SDS011;3098;42.678;23.364;2024-03-06T10:56:46;9.15;;;5.30;;
6133;SDS011;3098;42.678;23.364;2024-03-06T10:59:12;11.43;;;6.50;;
6133;SDS011;3098;42.678;23.364;2024-03-06T11:01:41;10.98;;;6.20;;
6133;SDS011;3098;42.678;23.364;2024-03-06T11:04:09;11.60;;;5.47;;
6133;SDS011;3098;42.678;23.364;2024-03-06T11:06:37;10.68;;;6.70;;
6133;SDS011;3098;42.678;23.364;2024-03-06T11:09:03;10.48;;;5.50;;
6133;SDS011;3098;42.678;23.364;2024-03-06T11:11:29;12.25;;;6.43;;
6133;SDS011;3098;42.678;23.364;2024-03-06T11:13:55;9.15;;;5.53;;
6133;SDS011;3098;42.678;23.364;2024-03-06T11:16:31;10.40;;;5.78;;
6133;SDS011;3098;42.678;23.364;2024-03-06T11:19:08;9.65;;;5.35;;
6133;SDS011;3098;42.678;23.364;2024-03-06T11:21:34;12.45;;;5.70;;
6133;SDS011;3098;42.678;23.364;2024-03-06T11:24:17;11.10;;;6.07;;
6133;SDS011;3098;42.678;23.364;2024-03-06T11:26:47;11.30;;;6.13;;
6133;SDS011;3098;42.678;23.364;2024-03-06T11:29:17;8.25;;;5.40;;
6133;SDS011;3098;42.678;23.364;2024-03-06T11:34:42;10.18;;;5.20;;
6133;SDS011;3098;42.678;23.364;2024-03-06T11:37:08;9.57;;;5.95;;
6133;SDS011;3098;42.678;23.364;2024-03-06T11:39:37;8.40;;;4.85;;
6133;SDS011;3098;42.678;23.364;2024-03-06T11:42:04;9.25;;;5.22;;
6133;SDS011;3098;42.678;23.364;2024-03-06T11:44:33;9.18;;;5.43;;
6133;SDS011;3098;42.678;23.364;2024-03-06T11:47:00;8.93;;;5.15;;
6133;SDS011;3098;42.678;23.364;2024-03-06T11:52:08;7.72;;;4.97;;
6133;SDS011;3098;42.678;23.364;2024-03-06T11:54:34;10.32;;;5.00;;
6133;SDS011;3098;42.678;23.364;2024-03-06T11:57:01;8.35;;;5.50;;
6133;SDS011;3098;42.678;23.364;2024-03-06T11:59:29;7.60;;;5.20;;
6133;SDS011;3098;42.678;23.364;2024-03-06T12:01:56;10.52;;;5.32;;
6133;SDS011;3098;42.678;23.364;2024-03-06T12:04:23;8.07;;;5.03;;
6133;SDS011;3098;42.678;23.364;2024-03-06T12:06:50;12.60;;;5.45;;
6133;SDS011;3098;42.678;23.364;2024-03-06T12:09:16;11.07;;;5.60;;
6133;SDS011;3098;42.678;23.364;2024-03-06T12:11:42;7.63;;;5.15;;
6133;SDS011;3098;42.678;23.364;2024-03-06T12:14:14;10.45;;;5.30;;
6133;SDS011;3098;42.678;23.364;2024-03-06T12:16:43;7.68;;;4.95;;
6133;SDS011;3098;42.678;23.364;2024-03-06T12:19:19;9.88;;;6.03;;
6133;SDS011;3098;42.678;23.364;2024-03-06T12:21:47;9.20;;;5.07;;
6133;SDS011;3098;42.678;23.364;2024-03-06T12:24:12;9.93;;;6.15;;
6133;SDS011;3098;42.678;23.364;2024-03-06T12:26:43;12.57;;;5.47;;
6133;SDS011;3098;42.678;23.364;2024-03-06T12:29:10;8.77;;;5.80;;
6133;SDS011;3098;42.678;23.364;2024-03-06T12:31:37;8.45;;;5.30;;
6133;SDS011;3098;42.678;23.364;2024-03-06T12:34:06;7.50;;;5.47;;
6133;SDS011;3098;42.678;23.364;2024-03-06T12:36:33;7.70;;;4.90;;
6133;SDS011;3098;42.678;23.364;2024-03-06T12:39:00;12.02;;;5.55;;
6133;SDS011;3098;42.678;23.364;2024-03-06T12:41:29;10.70;;;5.45;;
6133;SDS011;3098;42.678;23.364;2024-03-06T12:43:55;7.68;;;5.00;;
6133;SDS011;3098;42.678;23.364;2024-03-06T12:46:22;9.90;;;4.97;;
6133;SDS011;3098;42.678;23.364;2024-03-06T12:48:48;9.00;;;4.07;;
6133;SDS011;3098;42.678;23.364;2024-03-06T12:51:15;8.05;;;4.88;;
6133;SDS011;3098;42.678;23.364;2024-03-06T12:53:40;10.10;;;4.93;;
6133;SDS011;3098;42.678;23.364;2024-03-06T12:56:06;8.57;;;5.05;;
6133;SDS011;3098;42.678;23.364;2024-03-06T12:58:32;7.47;;;4.30;;
6133;SDS011;3098;42.678;23.364;2024-03-06T13:01:00;7.43;;;4.28;;
6133;SDS011;3098;42.678;23.364;2024-03-06T13:03:26;9.52;;;4.93;;
6133;SDS011;3098;42.678;23.364;2024-03-06T13:05:52;5.88;;;3.30;;
6133;SDS011;3098;42.678;23.364;2024-03-06T13:08:17;7.95;;;4.78;;
6133;SDS011;3098;42.678;23.364;2024-03-06T13:10:43;8.48;;;4.55;;
6133;SDS011;3098;42.678;23.364;2024-03-06T13:13:10;6.95;;;3.70;;
6133;SDS011;3098;42.678;23.364;2024-03-06T13:15:35;9.77;;;4.30;;
6133;SDS011;3098;42.678;23.364;2024-03-06T13:18:05;8.35;;;4.18;;
6133;SDS011;3098;42.678;23.364;2024-03-06T13:20:31;5.82;;;3.25;;
6133;SDS011;3098;42.678;23.364;2024-03-06T13:23:00;4.38;;;2.92;;
6133;SDS011;3098;42.678;23.364;2024-03-06T13:25:26;6.82;;;3.35;;
6133;SDS011;3098;42.678;23.364;2024-03-06T13:27:52;7.18;;;3.45;;
6133;SDS011;3098;42.678;23.364;2024-03-06T13:30:18;6.03;;;3.42;;
6133;SDS011;3098;42.678;23.364;2024-03-06T13:32:43;7.20;;;3.80;;
6133;SDS011;3098;42.678;23.364;2024-03-06T13:35:11;5.38;;;3.33;;
6133;SDS011;3098;42.678;23.364;2024-03-06T13:37:43;4.72;;;3.13;;
6133;SDS011;3098;42.678;23.364;2024-03-06T13:40:09;4.70;;;2.85;;
6133;SDS011;3098;42.678;23.364;2024-03-06T13:42:38;5.25;;;3.15;;
6133;SDS011;3098;42.678;23.364;2024-03-06T13:45:13;6.72;;;3.42;;
6133;SDS011;3098;42.678;23.364;2024-03-06T13:47:39;4.65;;;3.08;;
6133;SDS011;3098;42.678;23.364;2024-03-06T13:50:24;6.05;;;3.40;;
6133;SDS011;3098;42.678;23.364;2024-03-06T13:52:52;9.65;;;4.05;;
6133;SDS011;3098;42.678;23.364;2024-03-06T13:55:18;5.78;;;3.88;;
6133;SDS011;3098;42.678;23.364;2024-03-06T13:57:44;6.30;;;4.10;;
6133;SDS011;3098;42.678;23.364;2024-03-06T14:00:10;5.35;;;3.65;;
6133;SDS011;3098;42.678;23.364;2024-03-06T14:02:42;7.07;;;3.78;;
6133;SDS011;3098;42.678;23.364;2024-03-06T14:05:10;6.45;;;3.20;;
6133;SDS011;3098;42.678;23.364;2024-03-06T14:07:37;7.78;;;3.33;;
6133;SDS011;3098;42.678;23.364;2024-03-06T14:10:04;6.57;;;3.35;;
6133;SDS011;3098;42.678;23.364;2024-03-06T14:12:31;5.85;;;3.63;;
6133;SDS011;3098;42.678;23.364;2024-03-06T14:14:56;6.65;;;3.58;;
6133;SDS011;3098;42.678;23.364;2024-03-06T14:17:22;5.63;;;3.67;;
6133;SDS011;3098;42.678;23.364;2024-03-06T14:19:47;6.00;;;4.18;;
6133;SDS011;3098;42.678;23.364;2024-03-06T14:22:13;5.72;;;3.65;;
6133;SDS011;3098;42.678;23.364;2024-03-06T14:24:38;6.32;;;3.58;;
6133;SDS011;3098;42.678;23.364;2024-03-06T14:27:04;7.57;;;3.95;;
6133;SDS011;3098;42.678;23.364;2024-03-06T14:29:30;5.30;;;3.58;;
6133;SDS011;3098;42.678;23.364;2024-03-06T14:31:56;11.20;;;4.45;;
6133;SDS011;3098;42.678;23.364;2024-03-06T14:34:21;5.93;;;4.32;;
6133;SDS011;3098;42.678;23.364;2024-03-06T14:36:49;7.32;;;4.55;;
6133;SDS011;3098;42.678;23.364;2024-03-06T14:39:18;7.70;;;4.72;;
6133;SDS011;3098;42.678;23.364;2024-03-06T14:41:47;5.40;;;3.88;;
6133;SDS011;3098;42.678;23.364;2024-03-06T14:44:14;5.78;;;3.72;;
6133;SDS011;3098;42.678;23.364;2024-03-06T14:46:40;10.18;;;4.13;;